Time;durP1;ratioP1;P1;durP2;ratioP2;P2;SDS_P1;SDS_P2;PMS_P1;PMS_P2;Temp;Humidity;BMP_temperature;BMP_pressure;BME280_temperature;BME280_humidity;BME280_pressure;Samples;Min_cycle;Max_cycle;Signal;HPM_P1;HPM_P2
2021/07/17 00:00:21;;;;;;;7.80;7.10;;;22.50;67.60;;;22.46;51.68;95016.44;5021542;28;20587;-87
2021/07/17 00:02:49;;;;;;;7.18;6.47;;;22.50;67.80;;;22.44;51.54;95015.91;5021964;28;20231;-87
2021/07/17 00:05:17;;;;;;;8.40;7.43;;;22.40;67.80;;;22.44;52.42;95007.09;5014409;28;20220;-87
2021/07/17 00:07:46;;;;;;;7.75;7.05;;;22.40;68.20;;;22.42;52.26;95011.88;5038135;28;20239;-87
2021/07/17 00:10:20;;;;;;;7.65;6.78;;;22.40;69.40;;;22.42;52.58;95003.88;5037434;28;20764;-87
2021/07/17 00:12:48;;;;;;;9.15;8.20;;;22.30;68.60;;;22.41;52.61;95003.09;5037845;28;20724;-87
2021/07/17 00:15:20;;;;;;;10.98;7.25;;;22.30;68.70;;;22.42;53.17;94999.31;5030628;28;20213;-87
2021/07/17 00:17:47;;;;;;;8.75;7.57;;;22.30;69.00;;;22.38;52.90;94999.03;5016909;28;20216;-87
2021/07/17 00:20:15;;;;;;;7.35;6.63;;;22.30;69.00;;;22.43;52.50;95013.50;5001459;28;20310;-87
2021/07/17 00:22:42;;;;;;;8.48;7.53;;;22.30;69.10;;;22.43;53.38;95008.16;5002773;28;20249;-87
2021/07/17 00:25:15;;;;;;;8.60;7.50;;;22.30;69.10;;;22.39;53.09;95007.88;5031630;28;20602;-87
2021/07/17 00:27:43;;;;;;;9.30;7.07;;;22.30;69.30;;;22.42;53.49;95009.22;5053884;28;20197;-87
2021/07/17 00:30:12;;;;;;;8.93;7.70;;;22.30;69.30;;;22.41;53.33;95008.44;5024842;28;20292;-87
2021/07/17 00:32:39;;;;;;;9.15;7.88;;;22.30;69.60;;;22.38;53.25;95004.38;5037110;28;20750;-87
2021/07/17 00:35:07;;;;;;;8.13;7.32;;;22.20;69.50;;;22.36;53.92;94989.66;5037288;28;20210;-88
2021/07/17 00:37:35;;;;;;;7.93;7.22;;;22.20;69.60;;;22.34;53.43;94997.94;5037244;28;20277;-86
2021/07/17 00:40:05;;;;;;;8.45;7.65;;;22.20;69.70;;;22.32;53.60;94991.25;5020735;28;20256;-88
2021/07/17 00:42:34;;;;;;;7.97;7.22;;;22.20;70.00;;;22.28;54.17;94987.53;5036786;28;20264;-87
2021/07/17 00:45:01;;;;;;;8.65;7.82;;;22.20;69.90;;;22.26;53.71;94989.66;5028883;28;20737;-87
2021/07/17 00:47:30;;;;;;;9.00;8.10;;;22.20;70.00;;;22.26;54.38;94985.09;5020736;28;20202;-87
2021/07/17 00:49:58;;;;;;;9.13;8.23;;;22.20;70.20;;;22.20;54.26;94986.97;5037000;28;20224;-86
2021/07/17 00:52:25;;;;;;;9.18;8.27;;;22.10;70.20;;;22.17;54.43;94976.78;5052801;28;20265;-86
2021/07/17 00:54:53;;;;;;;9.00;7.68;;;22.10;70.30;;;22.17;54.61;94981.34;5036610;28;20224;-87
2021/07/17 00:57:23;;;;;;;8.82;7.93;;;22.10;70.80;;;22.16;54.72;94980.53;5020207;28;20226;-87
2021/07/17 00:59:52;;;;;;;8.90;7.90;;;22.00;70.70;;;22.14;54.58;94980.00;5011500;28;20316;-87
2021/07/17 01:02:23;;;;;;;8.75;7.95;;;22.00;70.80;;;22.11;54.46;94977.06;5016769;28;20201;-87
2021/07/17 01:04:53;;;;;;;8.85;7.95;;;22.10;70.90;;;22.10;54.74;94973.56;5017132;28;20222;-88
2021/07/17 01:07:21;;;;;;;9.25;8.35;;;22.00;70.90;;;22.11;55.34;94971.72;5001137;28;20224;-87
2021/07/17 01:09:48;;;;;;;8.93;8.13;;;22.00;71.00;;;22.10;55.23;94970.91;5009466;28;20312;-87
2021/07/17 01:12:15;;;;;;;8.93;8.02;;;22.00;71.00;;;22.05;55.46;94974.34;5000445;28;20201;-87
2021/07/17 01:14:42;;;;;;;9.13;8.05;;;22.00;71.10;;;22.04;55.35;94971.94;5007554;28;20216;-86
2021/07/17 01:17:11;;;;;;;10.43;8.70;;;22.00;71.20;;;22.03;55.29;94978.34;5036322;28;20294;-86
2021/07/17 01:19:40;;;;;;;8.10;7.30;;;21.90;71.10;;;22.03;55.07;94983.69;5036432;28;20212;-87
2021/07/17 01:22:08;;;;;;;9.27;8.25;;;21.90;71.30;;;22.02;54.89;94985.56;5035901;28;20201;-87
2021/07/17 01:24:37;;;;;;;9.63;7.90;;;21.90;71.10;;;22.02;54.77;94982.91;5019372;28;20294;-87
2021/07/17 01:27:05;;;;;;;8.93;7.72;;;21.90;71.40;;;22.07;55.02;94985.59;5019984;28;20226;-87
2021/07/17 01:29:33;;;;;;;8.20;7.50;;;21.90;71.40;;;22.09;55.09;94979.97;5019239;28;20212;-87
2021/07/17 01:32:01;;;;;;;8.57;7.68;;;21.90;71.50;;;22.11;55.07;94983.19;5052955;28;20318;-87
2021/07/17 01:34:30;;;;;;;8.75;7.95;;;21.90;71.40;;;22.12;54.95;94986.66;5034828;28;20221;-87
2021/07/17 01:36:57;;;;;;;8.70;7.90;;;21.90;71.50;;;22.13;55.35;94986.41;5016471;28;20233;-88
2021/07/17 01:39:25;;;;;;;8.27;7.47;;;21.90;71.50;;;22.15;55.14;94988.81;4983894;28;20274;-87
2021/07/17 01:41:52;;;;;;;8.50;7.65;;;21.90;71.50;;;22.12;55.32;94983.97;5038950;28;20270;-87
2021/07/17 01:44:20;;;;;;;8.75;7.88;;;21.90;71.50;;;22.16;55.56;94987.75;5046328;28;20734;-87
2021/07/17 01:46:48;;;;;;;8.90;7.97;;;22.00;71.70;;;22.17;55.67;94976.00;5052805;28;20654;-87
2021/07/17 01:49:15;;;;;;;10.30;9.02;;;21.90;71.70;;;22.17;55.54;94987.47;5019297;28;20224;-87
2021/07/17 01:51:42;;;;;;;8.50;7.68;;;22.00;71.80;;;22.18;55.13;94994.44;5036034;28;20205;-87
2021/07/17 01:54:09;;;;;;;9.13;8.23;;;22.00;71.80;;;22.20;55.38;95000.31;5028809;28;20210;-87
2021/07/17 01:56:36;;;;;;;9.10;8.18;;;22.00;71.90;;;22.25;55.71;94998.72;5052418;28;20223;-87
2021/07/17 01:59:03;;;;;;;8.70;7.80;;;22.00;72.00;;;22.24;55.65;95000.59;5051338;28;20200;-87
2021/07/17 02:01:31;;;;;;;8.60;7.75;;;22.00;72.00;;;22.27;55.62;95004.63;5031955;28;20224;-87
2021/07/17 02:03:58;;;;;;;8.68;7.85;;;22.00;72.00;;;22.28;55.50;94995.53;5016167;28;20196;-87
2021/07/17 02:06:28;;;;;;;10.18;7.78;;;22.00;72.10;;;22.29;55.83;94991.78;5007421;28;20197;-87
2021/07/17 02:08:55;;;;;;;8.77;7.97;;;22.10;72.30;;;22.26;55.97;94995.00;5016123;28;20219;-87
2021/07/17 02:11:23;;;;;;;8.82;7.95;;;22.10;72.20;;;22.24;55.88;94995.25;5035456;28;20204;-87
2021/07/17 02:13:53;;;;;;;10.13;8.93;;;22.10;72.20;;;22.27;56.25;94999.28;5052162;28;20228;-87
2021/07/17 02:16:21;;;;;;;8.70;7.90;;;22.10;72.50;;;22.25;56.12;94996.06;5035199;28;20292;-87
2021/07/17 02:18:49;;;;;;;9.55;8.55;;;22.10;72.30;;;22.22;55.92;94992.03;5027500;28;20207;-87
2021/07/17 02:21:17;;;;;;;10.30;9.30;;;22.10;72.30;;;22.20;56.72;95004.84;5031263;28;20210;-88
2021/07/17 02:23:45;;;;;;;8.88;8.05;;;22.00;72.20;;;22.17;56.06;94997.38;5051791;28;20280;-87
2021/07/17 02:26:13;;;;;;;9.82;8.73;;;22.10;72.30;;;22.15;56.13;94997.63;5035892;28;20639;-87
2021/07/17 02:28:40;;;;;;;9.65;8.75;;;22.00;72.30;;;22.12;56.62;95000.00;5034865;28;20280;-86
2021/07/17 02:31:09;;;;;;;9.57;8.57;;;22.00;72.50;;;22.10;56.41;94989.59;5035757;28;20296;-87
2021/07/17 02:33:36;;;;;;;8.98;8.07;;;22.00;72.50;;;22.09;56.24;94984.53;5019536;28;20648;-87
2021/07/17 02:36:04;;;;;;;10.02;9.02;;;22.00;72.50;;;22.06;56.46;94975.16;5018824;28;20219;-87
2021/07/17 02:38:31;;;;;;;9.50;8.55;;;21.90;72.70;;;22.04;56.41;94969.28;5035320;28;20215;-87
2021/07/17 02:40:59;;;;;;;10.02;9.02;;;21.90;72.70;;;22.02;57.27;94961.53;5017459;28;20220;-87
2021/07/17 02:43:26;;;;;;;9.30;8.32;;;21.90;72.90;;;22.01;56.60;94961.81;5011019;28;20211;-88
2021/07/17 02:45:53;;;;;;;10.15;9.13;;;21.90;73.00;;;21.97;55.91;94950.84;5055888;28;20270;-87
2021/07/17 02:48:20;;;;;;;10.02;9.02;;;21.90;72.90;;;21.95;57.06;94950.31;5039327;28;20192;-86
2021/07/17 02:50:47;;;;;;;10.43;8.45;;;21.90;73.10;;;21.94;57.17;94953.25;5039264;28;20209;-87
2021/07/17 02:53:15;;;;;;;10.35;8.85;;;21.80;73.60;;;21.92;57.11;94958.81;5045983;28;20207;-87
2021/07/17 02:55:42;;;;;;;10.10;8.43;;;21.80;73.30;;;21.90;57.31;94952.97;5048265;28;20834;-86
2021/07/17 02:58:09;;;;;;;9.43;8.43;;;21.80;73.20;;;21.90;57.22;94947.63;5015358;28;20646;-86
2021/07/17 03:00:37;;;;;;;9.48;8.48;;;21.80;73.30;;;21.88;57.31;94941.72;5035244;28;20212;-87
2021/07/17 03:03:12;;;;;;;9.68;8.77;;;21.70;73.40;;;21.88;57.47;94945.19;4997145;28;20197;-87
2021/07/17 03:05:40;;;;;;;9.60;8.60;;;21.80;74.00;;;21.84;57.59;94933.44;5035495;28;20736;-87
2021/07/17 03:08:08;;;;;;;9.73;8.73;;;21.70;73.60;;;21.84;57.48;94936.13;5029010;28;20220;-86
2021/07/17 03:10:35;;;;;;;10.80;9.80;;;21.80;73.70;;;21.79;58.71;94930.75;5029842;28;20208;-87
2021/07/17 03:13:03;;;;;;;10.60;9.55;;;21.70;74.00;;;21.80;57.81;94935.03;5030533;28;20191;-86
2021/07/17 03:15:30;;;;;;;10.63;9.52;;;21.70;74.00;;;21.78;58.02;94936.38;5026839;28;20221;-86
2021/07/17 03:17:57;;;;;;;10.95;9.57;;;21.70;74.00;;;21.75;57.69;94935.81;5028487;28;20227;-86
2021/07/17 03:20:25;;;;;;;11.40;10.05;;;21.70;74.00;;;21.72;57.94;94936.34;5028536;28;20243;-86
2021/07/17 03:22:52;;;;;;;10.68;9.55;;;21.60;74.10;;;21.70;58.34;94937.66;5011044;28;20193;-85
2021/07/17 03:25:19;;;;;;;10.65;9.55;;;21.70;74.30;;;21.67;58.75;94933.66;5032051;28;20216;-88
2021/07/17 03:27:46;;;;;;;12.00;10.80;;;21.60;74.30;;;21.64;59.42;94933.38;5030244;28;20200;-85
2021/07/17 03:30:15;;;;;;;10.80;9.73;;;21.60;74.70;;;21.58;59.08;94925.34;5046809;28;20214;-87
2021/07/17 03:32:42;;;;;;;10.95;9.60;;;21.60;74.60;;;21.53;58.88;94921.81;5036870;28;20183;-87
2021/07/17 03:35:10;;;;;;;11.38;10.25;;;21.50;74.50;;;21.49;59.16;94910.84;5004029;28;20758;-87
2021/07/17 03:37:37;;;;;;;11.18;10.00;;;21.50;74.70;;;21.41;58.86;94912.16;5011139;28;20694;-87
2021/07/17 03:40:07;;;;;;;11.95;10.60;;;21.40;74.60;;;21.39;59.03;94916.97;5010603;28;20223;-85
2021/07/17 03:42:34;;;;;;;11.82;10.20;;;21.40;75.00;;;21.35;59.67;94918.53;5042937;28;20204;-87
2021/07/17 03:45:01;;;;;;;11.63;10.48;;;21.30;74.90;;;21.35;59.36;94912.38;5044331;28;20223;-85
2021/07/17 03:47:28;;;;;;;13.32;11.30;;;21.30;75.00;;;21.33;59.36;94911.88;5043984;28;20287;-88
2021/07/17 03:49:55;;;;;;;11.40;10.20;;;21.30;75.30;;;21.34;59.37;94916.94;5016392;28;20219;-88
2021/07/17 03:52:23;;;;;;;13.52;11.13;;;21.30;75.40;;;21.36;59.74;94924.66;5017048;28;20199;-87
2021/07/17 03:54:50;;;;;;;12.10;10.90;;;21.30;75.70;;;21.38;59.52;94927.91;5016329;28;20235;-88
2021/07/17 03:57:18;;;;;;;11.82;10.50;;;21.30;75.80;;;21.41;59.27;94932.69;5032297;28;20220;-88
2021/07/17 03:59:45;;;;;;;12.15;9.98;;;21.20;75.80;;;21.44;59.43;94924.97;5015938;28;20220;-87
2021/07/17 04:02:12;;;;;;;11.77;10.57;;;21.30;76.00;;;21.51;59.76;94934.63;4999995;28;20198;-87
2021/07/17 04:04:41;;;;;;;12.15;10.65;;;21.30;76.00;;;21.56;59.31;94938.13;5011703;28;20220;-88
2021/07/17 04:07:09;;;;;;;11.60;10.20;;;21.30;76.10;;;21.62;59.69;94928.31;5054632;28;20582;-87
2021/07/17 04:09:36;;;;;;;13.07;9.85;;;21.40;76.30;;;21.69;59.39;94939.53;5054520;28;20708;-88
2021/07/17 04:12:04;;;;;;;12.13;10.50;;;21.40;76.30;;;21.75;59.32;94935.00;5022993;28;20720;-88
2021/07/17 04:14:32;;;;;;;13.23;10.13;;;21.50;76.40;;;21.83;59.47;94947.06;5019079;28;20212;-88
2021/07/17 04:16:59;;;;;;;11.82;10.63;;;21.50;76.30;;;21.86;59.25;94939.34;5050361;28;20205;-88
2021/07/17 04:19:26;;;;;;;10.70;9.70;;;21.60;76.30;;;21.95;59.87;94941.47;5037431;28;20255;-88
2021/07/17 04:21:54;;;;;;;12.27;10.95;;;21.60;76.40;;;22.02;59.41;94953.53;5051943;28;20271;-88
2021/07/17 04:24:22;;;;;;;12.55;11.25;;;21.70;76.40;;;22.11;59.20;94959.16;5037343;28;20222;-88
2021/07/17 04:26:49;;;;;;;12.05;10.80;;;21.70;76.50;;;22.18;59.33;94962.38;5020950;28;20200;-87
2021/07/17 04:29:17;;;;;;;12.05;10.75;;;21.80;76.50;;;22.26;59.41;94961.03;5020964;28;20223;-87
2021/07/17 04:31:44;;;;;;;12.65;11.35;;;21.90;76.60;;;22.34;59.35;94951.72;5020822;28;20201;-86
2021/07/17 04:34:12;;;;;;;12.25;10.98;;;21.90;76.50;;;22.41;59.25;94959.50;5017053;28;20230;-87
2021/07/17 04:36:39;;;;;;;13.75;11.40;;;22.00;76.50;;;22.46;59.04;94963.00;5001040;28;20678;-87
2021/07/17 04:39:06;;;;;;;14.65;12.60;;;22.00;76.50;;;22.52;59.83;94961.94;5049498;28;20283;-89
2021/07/17 04:41:33;;;;;;;15.35;11.57;;;22.10;76.50;;;22.54;59.46;94965.16;5021446;28;20193;-89
2021/07/17 04:44:00;;;;;;;12.73;11.52;;;22.20;76.50;;;22.58;59.22;94962.72;5050359;28;20248;-89
2021/07/17 04:46:28;;;;;;;13.30;11.73;;;22.20;76.40;;;22.60;59.34;94952.56;4998570;28;20613;-87
2021/07/17 04:48:55;;;;;;;13.98;12.57;;;22.20;76.30;;;22.64;59.29;94955.50;5003717;28;20201;-89
2021/07/17 04:51:22;;;;;;;14.05;12.10;;;22.30;76.40;;;22.66;59.06;94953.38;5037499;28;20640;-88
2021/07/17 04:53:49;;;;;;;13.48;11.90;;;22.40;76.40;;;22.67;59.26;94946.97;5036738;28;20208;-89
2021/07/17 04:56:17;;;;;;;13.38;11.95;;;22.30;76.30;;;22.70;59.23;94955.25;5020593;28;20210;-89
2021/07/17 04:58:44;;;;;;;13.40;11.77;;;22.40;76.40;;;22.76;59.13;94965.94;5017182;28;20310;-88
2021/07/17 05:01:11;;;;;;;14.55;13.00;;;22.40;76.40;;;22.79;59.22;94963.53;5051218;28;20297;-88
2021/07/17 05:03:39;;;;;;;13.88;12.52;;;22.40;76.30;;;22.83;59.25;94967.28;5030649;28;20229;-87
2021/07/17 05:06:06;;;;;;;14.00;12.55;;;22.50;76.40;;;22.87;59.50;94972.88;5035045;28;20575;-88
2021/07/17 05:08:33;;;;;;;15.30;13.70;;;22.50;76.50;;;22.90;59.36;94963.53;5018683;28;20194;-88
2021/07/17 05:11:00;;;;;;;14.55;13.05;;;22.50;76.40;;;22.90;59.58;94963.53;5036464;28;20306;-88
2021/07/17 05:13:28;;;;;;;16.63;13.07;;;22.60;76.40;;;22.95;59.64;94960.84;5036251;28;20274;-88
2021/07/17 05:15:55;;;;;;;14.93;12.82;;;22.60;76.50;;;23.01;59.18;94970.50;5052693;28;20684;-88
2021/07/17 05:18:22;;;;;;;14.00;12.05;;;22.60;76.50;;;23.06;59.39;94966.97;5035913;28;20733;-89
2021/07/17 05:20:50;;;;;;;14.63;13.07;;;22.70;76.60;;;23.16;59.33;94962.44;5050854;28;20228;-88
2021/07/17 05:23:17;;;;;;;16.10;13.80;;;22.70;76.70;;;23.25;59.51;94973.41;5050984;28;20225;-89
2021/07/17 05:25:46;;;;;;;16.40;13.93;;;22.80;76.80;;;23.38;59.12;94974.72;5050692;28;20208;-89
2021/07/17 05:28:13;;;;;;;15.35;13.75;;;22.90;76.90;;;23.45;59.20;94969.91;5044793;28;20262;-88
2021/07/17 05:30:40;;;;;;;15.65;13.30;;;22.90;76.90;;;23.60;59.23;94973.59;5014887;28;20303;-88
2021/07/17 05:33:11;;;;;;;15.65;14.02;;;23.00;76.90;;;23.74;59.03;94973.81;5014350;28;20326;-88
2021/07/17 05:35:39;;;;;;;15.00;12.80;;;23.10;77.10;;;23.90;59.20;94972.69;5032518;28;20220;-88
2021/07/17 05:38:06;;;;;;;15.68;13.25;;;23.30;77.20;;;24.05;58.65;94979.88;5048335;28;20240;-88
2021/07/17 05:40:34;;;;;;;15.82;13.82;;;23.40;77.10;;;24.17;58.49;94976.06;5019904;28;20211;-87
2021/07/17 05:43:01;;;;;;;14.68;13.18;;;23.50;76.80;;;24.22;58.67;94968.00;5019223;28;20202;-89
2021/07/17 05:45:29;;;;;;;15.18;13.52;;;23.60;76.70;;;24.33;58.61;94971.41;5019970;28;20214;-89
2021/07/17 05:47:56;;;;;;;15.60;13.35;;;23.70;77.40;;;24.40;58.63;94964.69;5019362;28;20244;-87
2021/07/17 05:50:23;;;;;;;16.00;14.35;;;23.80;76.50;;;24.52;58.60;94964.31;5016178;28;20683;-88
2021/07/17 05:52:50;;;;;;;16.02;14.43;;;23.90;76.60;;;24.66;57.88;94971.75;5015840;28;20207;-88
2021/07/17 05:55:17;;;;;;;15.65;13.00;;;24.00;76.50;;;24.76;57.97;94966.31;5049152;28;20215;-89
2021/07/17 05:57:44;;;;;;;14.65;13.15;;;24.10;76.30;;;24.86;57.93;94965.44;5033345;28;20219;-87
2021/07/17 06:00:14;;;;;;;15.57;13.90;;;24.10;76.20;;;24.96;57.74;94968.03;5034393;28;20207;-88
2021/07/17 06:02:41;;;;;;;14.65;12.88;;;24.30;76.20;;;25.02;57.86;94972.25;5035324;28;20219;-88
2021/07/17 06:05:09;;;;;;;16.77;13.63;;;24.40;76.00;;;25.06;57.39;94970.63;5050113;28;20230;-88
2021/07/17 06:07:36;;;;;;;14.60;13.10;;;24.40;75.80;;;25.09;57.31;94982.69;5029598;28;20385;-88
2021/07/17 06:10:05;;;;;;;13.25;11.85;;;24.50;75.60;;;25.07;57.43;94976.78;5032582;28;20265;-89
2021/07/17 06:12:33;;;;;;;14.23;12.25;;;24.60;75.50;;;25.10;57.02;94981.59;5033768;28;20251;-89
2021/07/17 06:15:00;;;;;;;15.13;13.02;;;24.60;75.30;;;25.08;56.96;94989.13;5017151;28;20251;-88
2021/07/17 06:17:27;;;;;;;13.55;12.23;;;24.60;75.00;;;25.04;56.85;94991.56;5030569;28;20204;-89
2021/07/17 06:19:55;;;;;;;14.05;12.55;;;24.60;75.00;;;25.07;57.22;94996.38;5049739;28;20223;-89
2021/07/17 06:22:22;;;;;;;13.38;11.95;;;24.60;75.00;;;25.10;57.17;94995.03;5017710;28;20260;-88
2021/07/17 06:24:50;;;;;;;13.40;11.88;;;24.70;75.10;;;25.15;57.30;94999.56;5033109;28;20315;-89
2021/07/17 06:27:18;;;;;;;13.35;12.05;;;24.70;75.00;;;25.19;57.10;94996.00;5033713;28;20199;-88
2021/07/17 06:29:45;;;;;;;12.38;11.18;;;24.70;75.00;;;25.22;56.90;94997.34;5033270;28;20218;-88
2021/07/17 06:32:12;;;;;;;12.60;11.27;;;24.80;75.00;;;25.27;57.10;94999.97;5034041;28;20631;-88
2021/07/17 06:34:39;;;;;;;12.60;11.40;;;24.80;75.00;;;25.28;56.89;95006.13;5018659;28;20227;-88
2021/07/17 06:37:06;;;;;;;11.38;10.27;;;24.80;74.70;;;25.28;56.86;95004.25;5035412;28;20295;-87
2021/07/17 06:39:33;;;;;;;12.43;11.15;;;24.80;74.70;;;25.31;56.87;95002.88;5031930;28;20245;-88
2021/07/17 06:42:01;;;;;;;12.48;11.18;;;24.80;74.70;;;25.35;56.91;94998.53;5015834;28;20226;-87
2021/07/17 06:44:29;;;;;;;12.02;10.73;;;24.90;74.80;;;25.47;56.81;94998.97;5016698;28;20219;-88
2021/07/17 06:46:56;;;;;;;13.98;10.90;;;24.90;75.00;;;25.57;56.68;94985.47;4999076;28;20291;-87
2021/07/17 06:49:23;;;;;;;11.90;10.80;;;24.90;75.00;;;25.73;56.43;94990.66;5003209;28;20248;-86
2021/07/17 06:51:50;;;;;;;13.95;10.93;;;25.10;74.90;;;25.80;56.25;94983.03;4999016;28;20665;-88
2021/07/17 06:54:17;;;;;;;11.90;10.52;;;25.10;74.80;;;25.95;56.41;94981.25;5032951;28;20285;-88
2021/07/17 06:56:45;;;;;;;12.48;10.73;;;25.20;74.70;;;26.03;56.17;94988.69;5019707;28;20558;-88
2021/07/17 06:59:12;;;;;;;12.00;10.40;;;25.30;74.50;;;26.07;55.89;94984.34;5018585;28;20243;-88
2021/07/17 07:01:40;;;;;;;11.65;10.55;;;25.40;74.40;;;26.13;55.93;94985.09;5034655;28;20197;-88
2021/07/17 07:04:08;;;;;;;10.02;9.05;;;25.40;74.30;;;26.19;55.51;94983.94;5018631;28;20196;-86
2021/07/17 07:06:36;;;;;;;11.25;10.10;;;25.50;74.40;;;26.28;55.61;94998.34;4999489;28;20266;-88
2021/07/17 07:09:03;;;;;;;11.55;10.32;;;25.60;74.10;;;26.35;55.84;94995.28;5008558;28;20196;-87
2021/07/17 07:11:30;;;;;;;10.48;9.38;;;25.70;73.80;;;26.40;55.28;94997.13;5009952;28;20212;-88
2021/07/17 07:13:58;;;;;;;10.68;9.68;;;25.70;73.50;;;26.48;55.39;95002.63;5035137;28;20228;-88
2021/07/17 07:16:25;;;;;;;12.15;10.13;;;25.80;73.60;;;26.55;55.11;94998.78;5048029;28;20233;-88
2021/07/17 07:18:52;;;;;;;12.45;10.48;;;25.90;73.20;;;26.59;55.01;94994.44;5015085;28;20277;-88
2021/07/17 07:21:19;;;;;;;11.18;9.98;;;25.90;72.80;;;26.60;54.27;94990.63;5026977;28;20576;-88
2021/07/17 07:23:47;;;;;;;10.93;9.85;;;26.00;72.80;;;26.67;54.30;94994.56;4998712;28;20202;-88
2021/07/17 07:26:14;;;;;;;11.38;10.18;;;26.00;73.80;;;26.72;54.67;95001.75;5004499;28;20220;-88
2021/07/17 07:28:41;;;;;;;12.15;10.85;;;26.10;72.80;;;26.75;54.20;95001.19;5053687;28;20204;-88
2021/07/17 07:31:08;;;;;;;18.38;10.35;;;26.10;72.30;;;26.75;54.27;94995.81;5054916;28;20231;-88
2021/07/17 07:33:35;;;;;;;11.80;10.10;;;26.20;72.40;;;26.76;54.33;94997.41;5055448;28;20208;-88
2021/07/17 07:36:03;;;;;;;12.82;10.80;;;26.20;72.30;;;26.75;54.37;94993.13;5035659;28;20706;-88
2021/07/17 07:38:30;;;;;;;12.57;11.13;;;26.20;72.30;;;26.84;53.81;94993.25;5007879;28;20272;-88
2021/07/17 07:40:57;;;;;;;12.20;10.50;;;26.20;72.30;;;26.88;53.95;94996.16;5018346;28;20310;-88
2021/07/17 07:43:24;;;;;;;13.77;11.30;;;26.30;72.30;;;26.89;54.16;94993.19;5018545;28;20590;-87
2021/07/17 07:45:51;;;;;;;12.77;11.50;;;26.30;72.10;;;26.94;53.79;95000.38;5019131;28;20242;-88
2021/07/17 07:48:18;;;;;;;12.82;11.55;;;26.30;71.90;;;26.89;53.60;94998.56;5004724;28;20201;-87
2021/07/17 07:50:46;;;;;;;11.98;10.75;;;26.40;71.60;;;26.82;53.56;95000.84;5021520;28;20252;-88
2021/07/17 07:53:13;;;;;;;12.45;11.18;;;26.40;71.60;;;26.81;53.61;95002.72;5021112;28;20220;-88
2021/07/17 07:55:40;;;;;;;14.15;11.88;;;26.40;71.60;;;26.82;53.56;94995.47;5021540;28;20584;-87
2021/07/17 07:58:07;;;;;;;13.15;11.75;;;26.40;71.60;;;26.81;53.50;94993.84;5017712;28;20217;-88
2021/07/17 08:00:35;;;;;;;14.88;11.88;;;26.40;71.60;;;26.86;53.29;95004.53;5018142;28;20312;-88
2021/07/17 08:03:02;;;;;;;13.82;12.43;;;26.40;71.40;;;26.90;53.34;94999.38;5001919;28;20223;-88
2021/07/17 08:05:29;;;;;;;13.25;11.82;;;26.40;71.30;;;26.96;53.24;94998.97;5035616;28;20642;-89
2021/07/17 08:07:57;;;;;;;12.77;11.02;;;26.40;71.50;;;27.06;53.52;94999.91;5033942;28;20286;-88
2021/07/17 08:10:24;;;;;;;13.43;12.02;;;26.50;71.50;;;27.17;53.13;95012.09;5034708;28;20241;-87
2021/07/17 08:12:52;;;;;;;13.80;12.38;;;26.50;71.40;;;27.23;53.04;95010.91;5037651;28;20657;-88
2021/07/17 08:15:20;;;;;;;13.30;11.88;;;26.50;71.30;;;27.26;53.19;95015.72;5037760;28;20605;-88
2021/07/17 08:17:47;;;;;;;12.77;11.48;;;26.60;71.30;;;27.32;53.45;95019.94;5037595;28;20210;-87
2021/07/17 08:20:16;;;;;;;13.93;12.38;;;26.70;71.40;;;27.33;52.67;95023.41;5036201;28;20269;-87
2021/07/17 08:22:44;;;;;;;13.00;11.75;;;26.70;70.90;;;27.31;52.75;95028.31;5019243;28;20217;-87
2021/07/17 08:25:12;;;;;;;14.48;12.38;;;26.70;70.70;;;27.24;52.33;95019.81;5014209;28;20240;-87
2021/07/17 08:27:40;;;;;;;13.15;11.77;;;26.80;70.40;;;27.19;53.01;95023.38;5036514;28;20243;-88
2021/07/17 08:30:10;;;;;;;19.25;12.18;;;26.70;71.30;;;27.20;52.31;95016.91;5020689;28;20224;-87
2021/07/17 08:32:54;;;;;;;14.57;12.95;;;26.70;70.40;;;27.28;53.08;95018.13;5023099;28;20207;-88
2021/07/17 08:35:23;;;;;;;13.88;12.40;;;26.70;70.70;;;27.37;52.80;95004.75;5036783;28;20299;-88
2021/07/17 08:37:50;;;;;;;14.85;13.32;;;26.80;70.70;;;27.49;52.40;94997.06;5019792;28;20262;-85
2021/07/17 08:40:17;;;;;;;15.00;12.80;;;26.80;70.90;;;27.61;52.72;94997.34;5020533;28;20231;-87
2021/07/17 08:42:48;;;;;;;14.32;12.85;;;26.90;71.10;;;27.75;52.11;94985.78;5023656;28;20220;-87
2021/07/17 08:45:15;;;;;;;15.52;13.32;;;26.90;70.90;;;27.85;51.81;94982.88;5017200;28;20313;-88
2021/07/17 08:47:44;;;;;;;13.80;12.32;;;27.00;70.90;;;27.90;52.01;94993.56;5017386;28;20670;-88
2021/07/17 08:50:18;;;;;;;18.55;12.13;;;27.10;70.50;;;27.92;51.58;94983.28;5001115;28;20218;-88
2021/07/17 08:52:46;;;;;;;14.20;11.98;;;27.20;70.10;;;27.95;51.62;94987.25;5038226;28;20204;-88
2021/07/17 08:55:13;;;;;;;13.15;11.63;;;27.20;69.80;;;27.96;50.86;94975.38;5013348;28;20231;-88
2021/07/17 08:57:45;;;;;;;13.05;11.75;;;27.30;69.70;;;28.02;51.71;94962.59;5020461;28;20891;-87
2021/07/17 09:00:24;;;;;;;13.18;11.98;;;27.30;69.80;;;28.27;51.43;94975.56;5020700;28;20622;-87
2021/07/17 09:02:56;;;;;;;13.57;12.20;;;27.30;70.00;;;28.52;51.01;94968.00;5034520;28;20199;-89
2021/07/17 09:05:30;;;;;;;13.02;11.60;;;27.50;69.90;;;28.82;51.09;94973.81;5036901;28;20217;-88
2021/07/17 09:07:58;;;;;;;13.82;12.20;;;27.60;70.60;;;29.00;50.35;94972.03;5053011;28;20198;-88
2021/07/17 09:10:41;;;;;;;13.65;11.15;;;27.90;70.00;;;29.06;50.23;94962.72;5037222;28;20244;-88
2021/07/17 09:13:27;;;;;;;11.90;10.70;;;28.00;69.20;;;29.08;50.27;94960.47;5029557;28;20247;-88
2021/07/17 09:16:07;;;;;;;12.93;11.68;;;28.10;69.20;;;29.11;50.28;94960.97;5003713;28;20227;-88
2021/07/17 09:18:53;;;;;;;12.57;11.38;;;28.30;69.30;;;29.11;49.81;94963.69;5051111;28;20225;-88
2021/07/17 09:21:36;;;;;;;13.63;12.20;;;28.30;69.00;;;29.07;49.31;94958.09;5053025;28;20208;-88
2021/07/17 09:24:18;;;;;;;13.25;10.90;;;28.40;68.00;;;29.01;49.16;94964.72;5036754;28;20210;-88
2021/07/17 09:26:58;;;;;;;12.90;10.80;;;28.40;68.00;;;28.97;50.05;94958.38;5039509;28;20247;-88
2021/07/17 09:29:38;;;;;;;10.82;9.77;;;28.40;67.90;;;28.99;49.55;94967.75;5019797;28;20710;-88
2021/07/17 09:32:06;;;;;;;11.73;10.45;;;28.40;67.90;;;29.08;50.07;94963.19;5019469;28;20261;-88
2021/07/17 09:34:34;;;;;;;11.20;10.00;;;28.40;68.20;;;29.28;50.01;94947.56;5020395;28;20222;-88
2021/07/17 09:37:10;;;;;;;11.07;9.40;;;28.50;68.60;;;29.47;49.50;94941.94;5035795;28;20242;-88
2021/07/17 09:39:47;;;;;;;10.52;8.85;;;28.60;68.60;;;29.74;49.55;94942.06;5019679;28;20242;-88
2021/07/17 09:42:19;;;;;;;11.35;10.13;;;28.70;68.10;;;30.02;48.71;94938.00;5035751;28;20194;-88
2021/07/17 09:44:51;;;;;;;11.32;10.23;;;28.80;68.00;;;30.25;48.50;94937.88;5019898;28;20273;-88
2021/07/17 09:47:26;;;;;;;10.35;9.35;;;29.00;67.70;;;30.43;48.96;94935.16;5035850;28;20199;-88
2021/07/17 09:50:16;;;;;;;10.07;9.10;;;29.30;68.20;;;30.62;48.21;94930.25;5013812;28;20223;-88
2021/07/17 09:52:46;;;;;;;13.40;8.65;;;29.50;68.20;;;30.73;47.73;94929.94;5015998;28;20325;-88
2021/07/17 09:55:16;;;;;;;10.65;8.90;;;29.60;67.10;;;30.64;46.41;94936.16;4984030;28;20684;-88
2021/07/17 09:57:44;;;;;;;9.98;8.05;;;29.70;66.40;;;30.56;47.14;94936.94;4985497;28;20205;-88
2021/07/17 10:00:19;;;;;;;9.77;8.82;;;29.80;66.40;;;30.50;46.86;94938.22;4999720;28;20257;-88
2021/07/17 10:02:52;;;;;;;9.77;7.95;;;29.80;66.00;;;30.45;47.63;94930.25;4985126;28;20209;-87
2021/07/17 10:05:40;;;;;;;9.18;8.27;;;29.80;66.20;;;30.47;47.04;94933.44;4999433;28;20230;-88
2021/07/17 10:08:12;;;;;;;9.88;8.15;;;29.80;66.30;;;30.45;46.94;94928.31;5015705;28;20197;-86
2021/07/17 10:10:41;;;;;;;9.00;8.10;;;29.80;65.70;;;30.51;47.04;94942.53;5015793;28;20228;-88
2021/07/17 10:13:09;;;;;;;8.98;7.25;;;29.80;65.90;;;30.55;47.48;94938.06;4985773;28;20740;-87
2021/07/17 10:15:36;;;;;;;8.88;7.43;;;29.90;66.10;;;30.62;46.57;94929.47;4983392;28;20228;-88